Time,TemperatureF,DewpointF,PressureIn,WindDirection,WindDirectionDegrees,WindSpeedMPH,WindSpeedGustMPH,Humidity,HourlyPrecipIn,Conditions,Clouds,dailyrainin,SolarRadiationWatts/m^2,SoftwareType,DateUTC
2013-05-31 00:00:00,60.7,58.0,30.04,SE,146,1.0,1.0,91,0.00,,,0.00,0,weatherlink.com 1.10,2013-05-31 07:00:00,
2013-05-31 00:15:00,60.8,58.0,30.04,SE,138,1.0,4.0,91,0.00,,,0.00,0,weatherlink.com 1.10,2013-05-31 07:15:00,
2013-05-31 00:30:00,61.0,58.0,30.04,SE,135,0.0,3.0,90,0.00,,,0.00,0,weatherlink.com 1.10,2013-05-31 07:30:00,
2013-05-31 00:45:00,61.0,58.0,30.04,SSE,153,0.0,3.0,90,0.00,,,0.00,0,weatherlink.com 1.10,2013-05-31 07:45:00,
2013-05-31 01:00:00,61.0,58.0,30.04,ESE,123,0.0,3.0,89,0.00,,,0.00,0,weatherlink.com 1.10,2013-05-31 08:00:00,
2013-05-31 01:15:00,60.9,58.0,30.03,SE,146,0.0,4.0,89,0.00,,,0.00,0,weatherlink.com 1.10,2013-05-31 08:15:00,
2013-05-31 01:30:00,60.7,58.0,30.03,SE,142,1.0,6.0,89,0.00,,,0.00,0,weatherlink.com 1.10,2013-05-31 08:30:00,
2013-05-31 01:45:00,60.6,58.0,30.02,SE,134,0.0,7.0,90,0.00,,,0.00,0,weatherlink.com 1.10,2013-05-31 08:45:00,
2013-05-31 02:00:00,60.6,58.0,30.03,SSE,159,0.0,4.0,90,0.00,,,0.00,0,weatherlink.com 1.10,2013-05-31 09:00:00,
2013-05-31 02:15:00,60.7,58.0,30.02,SSE,147,0.0,3.0,90,0.00,,,0.00,0,weatherlink.com 1.10,2013-05-31 09:15:00,
2013-05-31 02:30:00,60.6,58.0,30.02,SE,133,1.0,8.0,90,0.00,,,0.00,0,weatherlink.com 1.10,2013-05-31 09:30:00,
2013-05-31 02:45:00,60.5,58.0,30.02,ESE,119,0.0,3.0,90,0.00,,,0.00,0,weatherlink.com 1.10,2013-05-31 09:45:00,
2013-05-31 03:00:00,60.6,58.0,30.02,ESE,119,0.0,1.0,90,0.00,,,0.00,0,weatherlink.com 1.10,2013-05-31 10:00:00,
2013-05-31 03:15:00,60.5,58.0,30.02,SE,129,0.0,1.0,90,0.00,,,0.00,0,weatherlink.com 1.10,2013-05-31 10:15:00,
2013-05-31 03:30:00,60.4,58.0,30.02,SE,129,0.0,1.0,90,0.00,,,0.00,0,weatherlink.com 1.10,2013-05-31 10:30:00,
2013-05-31 03:45:00,60.3,57.0,30.02,SE,130,0.0,1.0,90,0.00,,,0.00,0,weatherlink.com 1.10,2013-05-31 10:45:00,
2013-05-31 04:01:00,60.2,57.0,30.02,SE,130,0.0,1.0,90,0.00,,,0.00,0,weatherlink.com 1.10,2013-05-31 11:01:00,
2013-05-31 04:16:00,60.2,57.0,30.02,SE,133,0.0,1.0,90,0.00,,,0.00,0,weatherlink.com 1.10,2013-05-31 11:16:00,
2013-05-31 04:31:00,60.2,57.0,30.01,SE,133,0.0,0.0,90,0.00,,,0.00,0,weatherlink.com 1.10,2013-05-31 11:31:00,
2013-05-31 04:46:00,60.2,57.0,30.01,SE,133,0.0,0.0,90,0.00,,,0.00,0,weatherlink.com 1.10,2013-05-31 11:46:00,
2013-05-31 05:01:00,60.1,57.0,30.01,SE,133,0.0,1.0,90,0.00,,,0.00,0,weatherlink.com 1.10,2013-05-31 12:01:00,
2013-05-31 05:16:00,60.0,57.0,30.02,SE,133,0.0,1.0,90,0.00,,,0.00,0,weatherlink.com 1.10,2013-05-31 12:16:00,
2013-05-31 05:31:00,59.9,57.0,30.02,SE,133,0.0,1.0,90,0.00,,,0.00,0,weatherlink.com 1.10,2013-05-31 12:31:00,
2013-05-31 05:46:00,59.9,57.0,30.03,SE,133,0.0,1.0,90,0.00,,,0.00,0,weatherlink.com 1.10,2013-05-31 12:46:00,
2013-05-31 06:01:00,59.9,57.0,30.04,SE,134,0.0,1.0,90,0.00,,,0.00,5,weatherlink.com 1.10,2013-05-31 13:01:00,
2013-05-31 06:16:00,60.0,57.0,30.05,SE,134,0.0,1.0,89,0.00,,,0.00,12,weatherlink.com 1.10,2013-05-31 13:16:00,
2013-05-31 06:31:00,60.1,57.0,30.05,SE,134,0.0,1.0,89,0.00,,,0.00,25,weatherlink.com 1.10,2013-05-31 13:31:00,
2013-05-31 06:46:00,60.2,57.0,30.05,SE,134,0.0,1.0,89,0.00,,,0.00,33,weatherlink.com 1.10,2013-05-31 13:46:00,
2013-05-31 07:01:00,60.4,57.0,30.05,SE,134,0.0,1.0,89,0.00,,,0.00,49,weatherlink.com 1.10,2013-05-31 14:01:00,
2013-05-31 07:16:00,60.6,57.0,30.05,SSE,155,0.0,1.0,88,0.00,,,0.00,62,weatherlink.com 1.10,2013-05-31 14:16:00,
2013-05-31 07:31:00,60.8,57.0,30.05,SSE,150,2.0,3.0,88,0.00,,,0.00,77,weatherlink.com 1.10,2013-05-31 14:31:00,
2013-05-31 07:46:00,60.7,57.0,30.05,SSE,150,0.0,1.0,88,0.00,,,0.00,97,weatherlink.com 1.10,2013-05-31 14:46:00,
2013-05-31 08:01:00,60.8,57.0,30.05,SSE,150,0.0,1.0,87,0.00,,,0.00,135,weatherlink.com 1.10,2013-05-31 15:01:00,
2013-05-31 08:16:00,61.4,57.0,30.05,NW,311,2.0,4.0,86,0.00,,,0.00,163,weatherlink.com 1.10,2013-05-31 15:16:00,
2013-05-31 08:31:00,61.9,57.0,30.05,WNW,294,0.0,3.0,85,0.00,,,0.00,199,weatherlink.com 1.10,2013-05-31 15:31:00,
2013-05-31 08:46:00,62.5,58.0,30.06,WNW,282,1.0,5.0,84,0.00,,,0.00,181,weatherlink.com 1.10,2013-05-31 15:46:00,
2013-05-31 09:01:00,62.9,58.0,30.05,WNW,297,2.0,5.0,83,0.00,,,0.00,278,weatherlink.com 1.10,2013-05-31 16:01:00,
2013-05-31 09:16:00,63.6,57.0,30.05,WSW,246,0.0,5.0,80,0.00,,,0.00,294,weatherlink.com 1.10,2013-05-31 16:16:00,
2013-05-31 09:31:00,64.2,58.0,30.05,NNE,22,0.0,4.0,81,0.00,,,0.00,341,weatherlink.com 1.10,2013-05-31 16:31:00,
2013-05-31 09:46:00,66.7,59.0,30.05,NW,315,4.0,6.0,76,0.00,,,0.00,694,weatherlink.com 1.10,2013-05-31 16:46:00,
2013-05-31 10:01:00,66.8,59.0,30.05,NNW,333,6.0,7.0,76,0.00,,,0.00,719,weatherlink.com 1.10,2013-05-31 17:01:00,
2013-05-31 10:16:00,68.2,59.0,30.04,NW,317,1.0,6.0,72,0.00,,,0.00,759,weatherlink.com 1.10,2013-05-31 17:16:00,
2013-05-31 10:31:00,69.9,59.0,30.04,NNW,337,4.0,8.0,68,0.00,,,0.00,795,weatherlink.com 1.10,2013-05-31 17:31:00,
2013-05-31 10:46:00,70.8,59.0,30.04,West,279,0.0,8.0,66,0.00,,,0.00,823,weatherlink.com 1.10,2013-05-31 17:46:00,
2013-05-31 11:02:00,71.8,59.0,30.03,North,360,2.0,8.0,65,0.00,,,0.00,854,weatherlink.com 1.10,2013-05-31 18:02:00,
2013-05-31 11:17:00,73.1,60.0,30.03,WSW,250,0.0,8.0,64,0.00,,,0.00,865,weatherlink.com 1.10,2013-05-31 18:17:00,
2013-05-31 11:32:00,74.1,61.0,30.03,SW,225,4.0,8.0,63,0.00,,,0.00,884,weatherlink.com 1.10,2013-05-31 18:32:00,
2013-05-31 11:47:00,73.4,60.0,30.02,SW,223,4.0,8.0,64,0.00,,,0.00,909,weatherlink.com 1.10,2013-05-31 18:47:00,
2013-05-31 12:02:00,74.8,61.0,30.02,South,188,1.0,6.0,62,0.00,,,0.00,919,weatherlink.com 1.10,2013-05-31 19:02:00,
2013-05-31 12:17:00,74.6,60.0,30.02,SSW,210,2.0,6.0,61,0.00,,,0.00,928,weatherlink.com 1.10,2013-05-31 19:17:00,
2013-05-31 12:32:00,75.5,61.0,30.01,SSE,148,2.0,5.0,61,0.00,,,0.00,940,weatherlink.com 1.10,2013-05-31 19:32:00,
2013-05-31 12:47:00,75.0,61.0,30.01,SSE,150,3.0,6.0,63,0.00,,,0.00,940,weatherlink.com 1.10,2013-05-31 19:47:00,
2013-05-31 13:02:00,75.4,61.0,30.01,South,178,0.0,6.0,62,0.00,,,0.00,940,weatherlink.com 1.10,2013-05-31 20:02:00,
2013-05-31 13:17:00,75.7,61.0,30.00,SE,141,1.0,6.0,61,0.00,,,0.00,937,weatherlink.com 1.10,2013-05-31 20:17:00,
2013-05-31 13:32:00,76.3,61.0,30.00,SE,134,0.0,6.0,59,0.00,,,0.00,930,weatherlink.com 1.10,2013-05-31 20:32:00,
2013-05-31 13:47:00,77.0,61.0,30.00,South,185,1.0,6.0,59,0.00,,,0.00,918,weatherlink.com 1.10,2013-05-31 20:47:00,
2013-05-31 14:02:00,76.9,61.0,29.99,SW,220,6.0,6.0,59,0.00,,,0.00,905,weatherlink.com 1.10,2013-05-31 21:02:00,
2013-05-31 14:17:00,77.1,61.0,29.98,ESE,115,0.0,4.0,58,0.00,,,0.00,886,weatherlink.com 1.10,2013-05-31 21:17:00,
2013-05-31 14:32:00,77.9,61.0,29.98,SSE,165,0.0,6.0,56,0.00,,,0.00,865,weatherlink.com 1.10,2013-05-31 21:32:00,
2013-05-31 14:47:00,77.2,61.0,29.98,SSE,163,0.0,5.0,58,0.00,,,0.00,842,weatherlink.com 1.10,2013-05-31 21:47:00,
2013-05-31 15:02:00,77.7,61.0,29.97,ESE,116,0.0,5.0,57,0.00,,,0.00,816,weatherlink.com 1.10,2013-05-31 22:02:00,
2013-05-31 15:17:00,77.6,61.0,29.97,SSW,204,4.0,6.0,57,0.00,,,0.00,784,weatherlink.com 1.10,2013-05-31 22:17:00,
2013-05-31 15:32:00,77.2,61.0,29.96,SW,219,0.0,5.0,58,0.00,,,0.00,749,weatherlink.com 1.10,2013-05-31 22:32:00,
2013-05-31 15:47:00,77.2,61.0,29.96,SW,223,3.0,6.0,58,0.00,,,0.00,714,weatherlink.com 1.10,2013-05-31 22:47:00,
2013-05-31 16:02:00,77.2,62.0,29.96,SE,139,0.0,4.0,59,0.00,,,0.00,671,weatherlink.com 1.10,2013-05-31 23:02:00,
2013-05-31 16:17:00,77.2,61.0,29.96,South,187,0.0,3.0,58,0.00,,,0.00,629,weatherlink.com 1.10,2013-05-31 23:17:00,
2013-05-31 16:32:00,77.3,62.0,29.95,SSW,209,1.0,4.0,59,0.00,,,0.00,584,weatherlink.com 1.10,2013-05-31 23:32:00,
2013-05-31 16:47:00,77.0,61.0,29.94,South,174,0.0,3.0,59,0.00,,,0.00,540,weatherlink.com 1.10,2013-05-31 23:47:00,
2013-05-31 17:02:00,76.6,61.0,29.94,South,190,0.0,4.0,59,0.00,,,0.00,497,weatherlink.com 1.10,2013-06-01 00:02:00,
2013-05-31 17:17:00,76.0,61.0,29.95,South,171,0.0,5.0,61,0.00,,,0.00,448,weatherlink.com 1.10,2013-06-01 00:17:00,
2013-05-31 17:32:00,74.7,61.0,29.95,SW,222,3.0,6.0,63,0.00,,,0.00,374,weatherlink.com 1.10,2013-06-01 00:32:00,
2013-05-31 17:47:00,73.0,60.0,29.96,SE,146,0.0,6.0,65,0.00,,,0.00,323,weatherlink.com 1.10,2013-06-01 00:47:00,
2013-05-31 18:03:00,71.6,60.0,29.97,SE,137,0.0,5.0,68,0.00,,,0.00,279,weatherlink.com 1.10,2013-06-01 01:03:00,
2013-05-31 18:18:00,70.7,60.0,29.98,SW,220,3.0,4.0,70,0.00,,,0.00,250,weatherlink.com 1.10,2013-06-01 01:18:00,
2013-05-31 18:33:00,70.1,60.0,29.98,SSE,153,0.0,5.0,71,0.00,,,0.00,178,weatherlink.com 1.10,2013-06-01 01:33:00,
2013-05-31 18:48:00,69.2,60.0,29.98,South,172,0.0,1.0,73,0.00,,,0.00,111,weatherlink.com 1.10,2013-06-01 01:48:00,
2013-05-31 19:03:00,68.3,60.0,29.99,SE,144,0.0,1.0,75,0.00,,,0.00,86,weatherlink.com 1.10,2013-06-01 02:03:00,
2013-05-31 19:18:00,67.0,60.0,29.99,SE,136,0.0,1.0,77,0.00,,,0.00,39,weatherlink.com 1.10,2013-06-01 02:18:00,
2013-05-31 19:33:00,65.8,59.0,29.99,SSE,152,0.0,1.0,79,0.00,,,0.00,21,weatherlink.com 1.10,2013-06-01 02:33:00,
2013-05-31 19:48:00,64.6,59.0,30.00,SSE,148,0.0,2.0,81,0.00,,,0.00,7,weatherlink.com 1.10,2013-06-01 02:48:00,
2013-05-31 20:03:00,63.8,59.0,30.00,SE,137,0.0,2.0,84,0.00,,,0.00,0,weatherlink.com 1.10,2013-06-01 03:03:00,
2013-05-31 20:18:00,63.1,59.0,30.00,SE,140,0.0,2.0,85,0.00,,,0.00,0,weatherlink.com 1.10,2013-06-01 03:18:00,
2013-05-31 20:33:00,62.5,58.0,30.01,SE,138,0.0,1.0,86,0.00,,,0.00,0,weatherlink.com 1.10,2013-06-01 03:33:00,
2013-05-31 20:48:00,62.1,58.0,30.01,SSE,153,0.0,1.0,87,0.00,,,0.00,0,weatherlink.com 1.10,2013-06-01 03:48:00,
2013-05-31 21:03:00,61.7,58.0,30.02,SE,137,0.0,2.0,88,0.00,,,0.00,0,weatherlink.com 1.10,2013-06-01 04:03:00,
2013-05-31 21:18:00,61.4,58.0,30.02,SE,137,0.0,1.0,89,0.00,,,0.00,0,weatherlink.com 1.10,2013-06-01 04:18:00,
2013-05-31 21:33:00,61.2,58.0,30.02,SE,137,0.0,0.0,89,0.00,,,0.00,0,weatherlink.com 1.10,2013-06-01 04:33:00,
2013-05-31 21:48:00,60.7,58.0,30.03,SE,137,0.0,0.0,89,0.00,,,0.00,0,weatherlink.com 1.10,2013-06-01 04:48:00,
2013-05-31 22:03:00,60.5,58.0,30.03,SE,137,0.0,0.0,90,0.00,,,0.00,0,weatherlink.com 1.10,2013-06-01 05:03:00,
2013-05-31 22:18:00,59.9,57.0,30.03,SE,137,0.0,0.0,90,0.00,,,0.00,0,weatherlink.com 1.10,2013-06-01 05:18:00,
2013-05-31 22:33:00,59.6,57.0,30.02,SE,136,0.0,0.0,90,0.00,,,0.00,0,weatherlink.com 1.10,2013-06-01 05:33:00,
2013-05-31 22:48:00,59.2,56.0,30.02,SE,137,0.0,0.0,90,0.00,,,0.00,0,weatherlink.com 1.10,2013-06-01 05:48:00,
2013-05-31 23:03:00,58.7,56.0,30.02,SE,137,0.0,0.0,91,0.00,,,0.00,0,weatherlink.com 1.10,2013-06-01 06:03:00,
2013-05-31 23:18:00,58.4,56.0,30.03,SE,136,0.0,0.0,91,0.00,,,0.00,0,weatherlink.com 1.10,2013-06-01 06:18:00,
2013-05-31 23:33:00,57.9,55.0,30.03,SE,137,0.0,0.0,91,0.00,,,0.00,0,weatherlink.com 1.10,2013-06-01 06:33:00,
2013-05-31 23:48:00,57.6,55.0,30.02,SE,137,0.0,0.0,91,0.00,,,0.00,0,weatherlink.com 1.10,2013-06-01 06:48:00,